QTR1359 DTTA-OTBD
Flight info
| Callsign | QTR1359 |
|---|---|
| Flight time | N/A |
| Altitude | 39000 |
| Route | DIDON2C DIDON UM978 SONAK DCT DOBIX DCT DEMAG UM978 EBOKA/N0484F410 UM978 SIT UM1 KAVOS N159 SAFTA N134 TULEP N318 NEVOL Q255 LUDEP P559 ALPOT M691 SILBA H979 DASVA N318 HAYYA HAYYA1V |
| Aircraft | A359/H-SDE2E3GHIJ3J4J5LM1ORWXY/LB1D1 |
Departure
| Time | 2026-04-28 21:11 |
|---|---|
| Airport | Tunis Carthage International Airport (DTTA) |
Arrival
| Time | N/A |
|---|---|
| Airport | Doha International Airport (OTBD) |
| Time | Latitude | Longitude | Altitude | Speed | Heading |
|---|---|---|---|---|---|
| 2026-04-28 20:46 | 36.84511 | 10.21875 | 28 ft | 0 kts | 6° |
| 2026-04-28 21:03 | 36.84490 | 10.21872 | 28 ft | 4 kts | 14° |
| 2026-04-28 21:03 | 36.84468 | 10.21858 | 28 ft | 4 kts | 53° |
| 2026-04-28 21:03 | 36.84458 | 10.21830 | 28 ft | 4 kts | 89° |
| 2026-04-28 21:04 | 36.84459 | 10.21810 | 28 ft | 1 kts | 101° |
| 2026-04-28 21:04 | 36.84459 | 10.21808 | 28 ft | 0 kts | 101° |
| 2026-04-28 21:06 | 36.84459 | 10.21810 | 28 ft | 4 kts | 101° |
| 2026-04-28 21:07 | 36.84440 | 10.21934 | 27 ft | 15 kts | 97° |
| 2026-04-28 21:07 | 36.84497 | 10.22115 | 27 ft | 13 kts | 74° |
| 2026-04-28 21:07 | 36.84500 | 10.22202 | 27 ft | 15 kts | 81° |
| 2026-04-28 21:07 | 36.84537 | 10.22264 | 27 ft | 16 kts | 29° |
| 2026-04-28 21:08 | 36.84698 | 10.22313 | 28 ft | 33 kts | 13° |
| 2026-04-28 21:08 | 36.84905 | 10.22367 | 30 ft | 14 kts | 12° |
| 2026-04-28 21:08 | 36.85025 | 10.22336 | 32 ft | 17 kts | 302° |
| 2026-04-28 21:08 | 36.85084 | 10.22133 | 32 ft | 34 kts | 294° |
| 2026-04-28 21:09 | 36.85183 | 10.21841 | 34 ft | 36 kts | 294° |
| 2026-04-28 21:09 | 36.85269 | 10.21704 | 35 ft | 0 kts | 358° |
| 2026-04-28 21:09 | 36.85310 | 10.21723 | 35 ft | 15 kts | 20° |
| 2026-04-28 21:09 | 36.85390 | 10.21790 | 35 ft | 13 kts | 69° |
| 2026-04-28 21:10 | 36.85386 | 10.21889 | 35 ft | 9 kts | 112° |
| 2026-04-28 21:10 | 36.85385 | 10.21893 | 35 ft | 1 kts | 111° |
| 2026-04-28 21:10 | 36.85307 | 10.22130 | 33 ft | 65 kts | 112° |
| 2026-04-28 21:10 | 36.85044 | 10.22921 | 32 ft | 131 kts | 112° |
| 2026-04-28 21:11 | 36.84643 | 10.24141 | 283 ft | 164 kts | 112° |
| 2026-04-28 21:11 | 36.84190 | 10.25512 | 806 ft | 176 kts | 115° |
| 2026-04-28 21:11 | 36.83637 | 10.26848 | 1585 ft | 181 kts | 123° |
| 2026-04-28 21:11 | 36.82954 | 10.28340 | 1981 ft | 215 kts | 123° |
| 2026-04-28 21:12 | 36.82179 | 10.30065 | 2590 ft | 240 kts | 120° |
| 2026-04-28 21:12 | 36.81336 | 10.32004 | 3176 ft | 264 kts | 119° |
| 2026-04-28 21:12 | 36.80460 | 10.34038 | 4044 ft | 267 kts | 118° |
| 2026-04-28 21:12 | 36.79589 | 10.36092 | 4815 ft | 270 kts | 117° |
| 2026-04-28 21:13 | 36.79124 | 10.38367 | 5515 ft | 276 kts | 89° |
| 2026-04-28 21:13 | 36.79471 | 10.40720 | 6277 ft | 278 kts | 76° |
| 2026-04-28 21:13 | 36.79940 | 10.43079 | 7008 ft | 282 kts | 77° |
| 2026-04-28 21:13 | 36.80329 | 10.45496 | 7744 ft | 286 kts | 82° |
| 2026-04-28 21:14 | 36.80538 | 10.47976 | 8484 ft | 289 kts | 87° |
| 2026-04-28 21:14 | 36.80545 | 10.50499 | 9206 ft | 293 kts | 93° |
| 2026-04-28 21:14 | 36.80353 | 10.53040 | 9756 ft | 295 kts | 98° |
| 2026-04-28 21:14 | 36.79968 | 10.55565 | 10158 ft | 300 kts | 103° |
| 2026-04-28 21:15 | 36.79476 | 10.58155 | 10555 ft | 313 kts | 104° |
| 2026-04-28 21:15 | 36.78950 | 10.60849 | 10948 ft | 326 kts | 104° |
| 2026-04-28 21:15 | 36.78406 | 10.63645 | 11340 ft | 337 kts | 104° |
| 2026-04-28 21:15 | 36.77847 | 10.66528 | 11734 ft | 347 kts | 104° |
| 2026-04-28 21:16 | 36.77281 | 10.69447 | 12122 ft | 355 kts | 104° |
| 2026-04-28 21:16 | 36.76696 | 10.72472 | 12518 ft | 362 kts | 104° |
| 2026-04-28 21:16 | 36.76100 | 10.75547 | 12914 ft | 368 kts | 104° |
| 2026-04-28 21:16 | 36.75494 | 10.78672 | 13312 ft | 373 kts | 104° |
| 2026-04-28 21:17 | 36.74882 | 10.81828 | 13710 ft | 376 kts | 104° |
| 2026-04-28 21:17 | 36.74263 | 10.85012 | 14108 ft | 379 kts | 104° |
| 2026-04-28 21:17 | 36.73639 | 10.88217 | 14508 ft | 382 kts | 104° |
| 2026-04-28 21:17 | 36.73010 | 10.91441 | 14909 ft | 383 kts | 104° |
| 2026-04-28 21:18 | 36.72379 | 10.94675 | 15309 ft | 384 kts | 104° |
| 2026-04-28 21:18 | 36.71745 | 10.97914 | 15710 ft | 385 kts | 104° |
| 2026-04-28 21:18 | 36.71111 | 11.01153 | 16111 ft | 385 kts | 104° |
| 2026-04-28 21:18 | 36.70475 | 11.04401 | 16513 ft | 385 kts | 104° |
| 2026-04-28 21:19 | 36.69862 | 11.07655 | 16915 ft | 386 kts | 103° |
| 2026-04-28 21:19 | 36.69263 | 11.10911 | 17317 ft | 386 kts | 103° |
| 2026-04-28 21:19 | 36.68667 | 11.14176 | 17718 ft | 387 kts | 103° |
| 2026-04-28 21:19 | 36.68070 | 11.17446 | 18119 ft | 388 kts | 103° |
| 2026-04-28 21:20 | 36.67468 | 11.20727 | 18521 ft | 388 kts | 103° |
| 2026-04-28 21:20 | 36.66862 | 11.24005 | 18922 ft | 389 kts | 103° |
| 2026-04-28 21:20 | 36.66253 | 11.27290 | 19323 ft | 390 kts | 103° |
| 2026-04-28 21:20 | 36.65640 | 11.30579 | 19725 ft | 390 kts | 103° |
| 2026-04-28 21:21 | 36.65025 | 11.33873 | 20126 ft | 391 kts | 103° |
| 2026-04-28 21:21 | 36.64408 | 11.37172 | 20528 ft | 391 kts | 103° |
| 2026-04-28 21:21 | 36.63790 | 11.40474 | 20929 ft | 392 kts | 103° |
| 2026-04-28 21:21 | 36.63170 | 11.43777 | 21331 ft | 392 kts | 103° |
| 2026-04-28 21:22 | 36.62549 | 11.47082 | 21732 ft | 392 kts | 103° |
| 2026-04-28 21:22 | 36.61927 | 11.50386 | 22133 ft | 392 kts | 103° |
| 2026-04-28 21:22 | 36.61308 | 11.53692 | 22535 ft | 392 kts | 103° |
| 2026-04-28 21:22 | 36.60895 | 11.55883 | 22801 ft | 392 kts | 103° |
| 2026-04-28 21:23 | 36.60065 | 11.60260 | 23105 ft | 392 kts | 103° |
| 2026-04-28 21:23 | 36.59433 | 11.63590 | 23550 ft | 399 kts | 105° |
| 2026-04-28 21:23 | 36.58788 | 11.66976 | 23894 ft | 407 kts | 105° |
| 2026-04-28 21:23 | 36.58120 | 11.70471 | 24016 ft | 423 kts | 104° |
| 2026-04-28 21:24 | 36.57424 | 11.74109 | 24023 ft | 441 kts | 104° |
| 2026-04-28 21:24 | 36.56698 | 11.77901 | 24023 ft | 460 kts | 104° |
| 2026-04-28 21:24 | 36.55946 | 11.81829 | 24028 ft | 471 kts | 104° |
| 2026-04-28 21:24 | 36.55186 | 11.85804 | 24033 ft | 473 kts | 104° |
| 2026-04-28 21:25 | 36.54425 | 11.89779 | 24038 ft | 473 kts | 104° |
| 2026-04-28 21:25 | 36.53663 | 11.93752 | 24034 ft | 473 kts | 104° |
| 2026-04-28 21:25 | 36.52898 | 11.97727 | 24035 ft | 472 kts | 104° |
| 2026-04-28 21:25 | 36.52131 | 12.01704 | 24035 ft | 472 kts | 104° |
| 2026-04-28 21:26 | 36.51363 | 12.05677 | 24036 ft | 473 kts | 104° |
| 2026-04-28 21:26 | 36.50598 | 12.09650 | 24036 ft | 474 kts | 104° |
| 2026-04-28 21:26 | 36.50029 | 12.13693 | 24038 ft | 475 kts | 98° |
| 2026-04-28 21:26 | 36.49643 | 12.17768 | 24036 ft | 475 kts | 96° |
| 2026-04-28 21:27 | 36.49316 | 12.21857 | 24038 ft | 475 kts | 96° |
| 2026-04-28 21:27 | 36.49020 | 12.25959 | 24096 ft | 478 kts | 95° |
| 2026-04-28 21:27 | 36.48736 | 12.30086 | 24550 ft | 480 kts | 95° |
| 2026-04-28 21:27 | 36.48453 | 12.34224 | 25161 ft | 481 kts | 95° |
| 2026-04-28 21:28 | 36.48164 | 12.38375 | 25695 ft | 484 kts | 95° |
| 2026-04-28 21:28 | 36.47868 | 12.42552 | 26180 ft | 487 kts | 95° |
| 2026-04-28 21:28 | 36.47564 | 12.46769 | 26591 ft | 492 kts | 95° |
| 2026-04-28 21:28 | 36.47258 | 12.50963 | 27087 ft | 495 kts | 95° |
| 2026-04-28 21:29 | 36.46944 | 12.55231 | 27602 ft | 498 kts | 95° |
| 2026-04-28 21:29 | 36.46625 | 12.59536 | 28086 ft | 501 kts | 95° |
| 2026-04-28 21:29 | 36.46303 | 12.63861 | 28571 ft | 504 kts | 95° |
| 2026-04-28 21:29 | 36.45978 | 12.68207 | 29030 ft | 507 kts | 95° |
| 2026-04-28 21:30 | 36.45650 | 12.72583 | 29496 ft | 510 kts | 95° |
| 2026-04-28 21:30 | 36.45318 | 12.76981 | 29936 ft | 513 kts | 95° |
| 2026-04-28 21:30 | 36.44982 | 12.81414 | 30265 ft | 518 kts | 95° |
| 2026-04-28 21:30 | 36.44641 | 12.85893 | 30537 ft | 522 kts | 96° |
| 2026-04-28 21:31 | 36.44296 | 12.90397 | 30833 ft | 526 kts | 96° |
| 2026-04-28 21:31 | 36.43947 | 12.94934 | 31127 ft | 529 kts | 96° |
| 2026-04-28 21:31 | 36.43594 | 12.99505 | 31400 ft | 533 kts | 96° |
| 2026-04-28 21:31 | 36.43237 | 13.04096 | 31672 ft | 536 kts | 96° |
| 2026-04-28 21:32 | 36.42881 | 13.08656 | 31933 ft | 539 kts | 96° |
| 2026-04-28 21:32 | 36.42516 | 13.13302 | 32182 ft | 542 kts | 96° |
| 2026-04-28 21:32 | 36.42147 | 13.17982 | 32383 ft | 547 kts | 96° |
| 2026-04-28 21:32 | 36.41774 | 13.22684 | 32705 ft | 548 kts | 97° |
| 2026-04-28 21:33 | 36.41400 | 13.27385 | 33079 ft | 548 kts | 97° |
| 2026-04-28 21:33 | 36.41023 | 13.32097 | 33410 ft | 548 kts | 97° |
| 2026-04-28 21:33 | 36.40644 | 13.36810 | 33743 ft | 549 kts | 97° |
| 2026-04-28 21:33 | 36.40262 | 13.41531 | 34073 ft | 550 kts | 97° |
| 2026-04-28 21:34 | 36.39878 | 13.46257 | 34358 ft | 550 kts | 97° |
| 2026-04-28 21:34 | 36.39493 | 13.50976 | 34649 ft | 550 kts | 97° |
| 2026-04-28 21:34 | 36.39104 | 13.55716 | 34801 ft | 554 kts | 97° |
| 2026-04-28 21:34 | 36.38711 | 13.60476 | 35066 ft | 554 kts | 97° |
| 2026-04-28 21:35 | 36.38317 | 13.65232 | 35394 ft | 553 kts | 97° |
| 2026-04-28 21:35 | 36.37922 | 13.69985 | 35705 ft | 552 kts | 97° |
| 2026-04-28 21:35 | 36.37526 | 13.74713 | 35981 ft | 552 kts | 97° |
| 2026-04-28 21:35 | 36.37128 | 13.79449 | 36254 ft | 551 kts | 97° |
| 2026-04-28 21:36 | 36.36728 | 13.84179 | 36522 ft | 551 kts | 97° |
| 2026-04-28 21:36 | 36.36327 | 13.88908 | 36743 ft | 552 kts | 98° |
| 2026-04-28 21:36 | 36.35923 | 13.93643 | 36988 ft | 552 kts | 98° |
| 2026-04-28 21:36 | 36.35522 | 13.98320 | 37241 ft | 552 kts | 98° |
| 2026-04-28 21:37 | 36.35115 | 14.03047 | 37507 ft | 551 kts | 97° |
| 2026-04-28 21:37 | 36.34707 | 14.07768 | 37769 ft | 550 kts | 97° |
| 2026-04-28 21:37 | 36.34292 | 14.12544 | 38024 ft | 550 kts | 97° |
| 2026-04-28 21:37 | 36.33880 | 14.17252 | 38264 ft | 549 kts | 97° |
| 2026-04-28 21:38 | 36.33473 | 14.21902 | 38477 ft | 549 kts | 97° |
| 2026-04-28 21:38 | 36.33058 | 14.26600 | 38774 ft | 547 kts | 97° |
| 2026-04-28 21:38 | 36.32644 | 14.31282 | 38982 ft | 545 kts | 97° |
| 2026-04-28 21:38 | 36.32228 | 14.35963 | 39065 ft | 547 kts | 97° |
| 2026-04-28 21:39 | 36.31389 | 14.45333 | 39073 ft | 547 kts | 97° |
| 2026-04-28 21:39 | 36.30542 | 14.54704 | 39080 ft | 547 kts | 97° |
| 2026-04-28 21:40 | 36.29689 | 14.64069 | 39083 ft | 547 kts | 97° |
| 2026-04-28 21:40 | 36.28828 | 14.73434 | 39086 ft | 547 kts | 97° |
| 2026-04-28 21:41 | 36.27960 | 14.82796 | 39086 ft | 547 kts | 98° |
| 2026-04-28 21:41 | 36.27234 | 14.90572 | 39086 ft | 547 kts | 98° |
| 2026-04-28 21:42 | 36.26353 | 14.99921 | 39083 ft | 546 kts | 98° |
| 2026-04-28 21:42 | 36.25320 | 15.10791 | 39086 ft | 546 kts | 98° |
| 2026-04-28 21:43 | 36.24425 | 15.20127 | 39083 ft | 546 kts | 98° |
| 2026-04-28 21:43 | 36.23521 | 15.29463 | 39089 ft | 546 kts | 98° |
| 2026-04-28 21:44 | 36.22766 | 15.37215 | 39089 ft | 546 kts | 98° |
| 2026-04-28 21:44 | 36.21850 | 15.46550 | 39088 ft | 546 kts | 98° |
| 2026-04-28 21:45 | 36.20926 | 15.55886 | 39088 ft | 546 kts | 98° |
| 2026-04-28 21:45 | 36.19995 | 15.65216 | 39091 ft | 545 kts | 98° |
| 2026-04-28 21:46 | 36.19057 | 15.74540 | 39094 ft | 546 kts | 98° |
| 2026-04-28 21:46 | 36.18112 | 15.83866 | 39094 ft | 546 kts | 98° |
| 2026-04-28 21:47 | 36.17159 | 15.93188 | 39097 ft | 546 kts | 98° |
| 2026-04-28 21:47 | 36.16199 | 16.02509 | 39094 ft | 546 kts | 98° |
| 2026-04-28 21:48 | 36.15232 | 16.11827 | 39097 ft | 546 kts | 98° |
| 2026-04-28 21:48 | 36.14258 | 16.21143 | 39100 ft | 546 kts | 98° |
| 2026-04-28 21:49 | 36.13282 | 16.30405 | 39099 ft | 546 kts | 98° |
| 2026-04-28 21:49 | 36.12293 | 16.39721 | 39103 ft | 546 kts | 98° |
| 2026-04-28 21:50 | 36.11296 | 16.49034 | 39102 ft | 546 kts | 98° |
| 2026-04-28 21:50 | 36.10293 | 16.58343 | 39102 ft | 546 kts | 98° |
| 2026-04-28 21:51 | 36.09281 | 16.67663 | 39102 ft | 546 kts | 98° |
| 2026-04-28 21:51 | 36.08263 | 16.76974 | 39103 ft | 546 kts | 98° |
| 2026-04-28 21:52 | 36.07237 | 16.86283 | 39102 ft | 546 kts | 98° |
| 2026-04-28 21:52 | 36.06204 | 16.95592 | 39102 ft | 547 kts | 98° |
| 2026-04-28 21:53 | 36.05164 | 17.04894 | 39104 ft | 547 kts | 98° |
| 2026-04-28 21:53 | 36.04116 | 17.14201 | 39108 ft | 547 kts | 98° |
| 2026-04-28 21:54 | 36.03068 | 17.23451 | 39110 ft | 547 kts | 98° |
| 2026-04-28 21:54 | 36.02005 | 17.32755 | 39110 ft | 547 kts | 98° |
| 2026-04-28 21:55 | 36.00935 | 17.42056 | 39112 ft | 547 kts | 98° |
| 2026-04-28 21:55 | 35.99856 | 17.51376 | 39110 ft | 547 kts | 98° |
| 2026-04-28 21:56 | 35.98771 | 17.60681 | 39113 ft | 548 kts | 98° |
| 2026-04-28 21:56 | 35.97679 | 17.69983 | 39113 ft | 548 kts | 98° |
| 2026-04-28 21:57 | 35.96579 | 17.79288 | 39113 ft | 548 kts | 98° |
| 2026-04-28 21:57 | 35.95472 | 17.88588 | 39116 ft | 548 kts | 98° |
| 2026-04-28 21:58 | 35.94358 | 17.97890 | 39116 ft | 548 kts | 98° |
| 2026-04-28 21:58 | 35.93236 | 18.07192 | 39116 ft | 548 kts | 98° |
| 2026-04-28 21:59 | 35.92115 | 18.16419 | 39116 ft | 547 kts | 98° |
| 2026-04-28 22:00 | 35.90410 | 18.30348 | 39117 ft | 547 kts | 98° |
| 2026-04-28 22:00 | 35.89265 | 18.39626 | 39119 ft | 547 kts | 98° |
| 2026-04-28 22:01 | 35.88111 | 18.48908 | 39117 ft | 548 kts | 98° |
| 2026-04-28 22:01 | 35.86950 | 18.58187 | 39116 ft | 547 kts | 98° |
| 2026-04-28 22:02 | 35.85784 | 18.67457 | 39116 ft | 547 kts | 98° |
| 2026-04-28 22:02 | 35.84610 | 18.76726 | 39116 ft | 547 kts | 98° |
| 2026-04-28 22:03 | 35.83427 | 18.86007 | 39118 ft | 548 kts | 98° |
| 2026-04-28 22:03 | 35.82238 | 18.95277 | 39116 ft | 548 kts | 98° |
| 2026-04-28 22:04 | 35.81040 | 19.04553 | 39114 ft | 548 kts | 98° |
| 2026-04-28 22:04 | 35.79836 | 19.13824 | 39116 ft | 548 kts | 98° |
| 2026-04-28 22:05 | 35.78624 | 19.23096 | 39116 ft | 548 kts | 98° |
| 2026-04-28 22:05 | 35.77405 | 19.32367 | 39116 ft | 548 kts | 98° |
| 2026-04-28 22:06 | 35.76179 | 19.41635 | 39117 ft | 548 kts | 98° |
| 2026-04-28 22:06 | 35.74946 | 19.50897 | 39117 ft | 549 kts | 98° |
| 2026-04-28 22:07 | 35.73704 | 19.60168 | 39116 ft | 549 kts | 98° |
| 2026-04-28 22:07 | 35.72456 | 19.69435 | 39116 ft | 549 kts | 98° |
| 2026-04-28 22:08 | 35.71199 | 19.78708 | 39116 ft | 549 kts | 98° |
| 2026-04-28 22:08 | 35.69944 | 19.87913 | 39116 ft | 550 kts | 98° |
| 2026-04-28 22:09 | 35.68669 | 19.97206 | 39113 ft | 551 kts | 98° |
| 2026-04-28 22:09 | 35.67388 | 20.06491 | 39113 ft | 551 kts | 98° |
| 2026-04-28 22:10 | 35.66098 | 20.15783 | 39120 ft | 551 kts | 98° |
| 2026-04-28 22:10 | 35.64800 | 20.25084 | 39111 ft | 552 kts | 98° |
| 2026-04-28 22:11 | 35.63494 | 20.34390 | 39111 ft | 553 kts | 98° |
| 2026-04-28 22:11 | 35.62179 | 20.43701 | 39110 ft | 553 kts | 98° |
| 2026-04-28 22:12 | 35.60856 | 20.53010 | 39111 ft | 553 kts | 98° |
| 2026-04-28 22:12 | 35.59526 | 20.62321 | 39110 ft | 554 kts | 98° |
| 2026-04-28 22:13 | 35.58188 | 20.71632 | 39109 ft | 554 kts | 98° |
| 2026-04-28 22:13 | 35.56842 | 20.80949 | 39118 ft | 554 kts | 98° |
| 2026-04-28 22:14 | 35.55490 | 20.90252 | 39106 ft | 553 kts | 98° |
| 2026-04-28 22:14 | 35.54131 | 20.99550 | 39108 ft | 553 kts | 98° |
| 2026-04-28 22:15 | 35.52766 | 21.08840 | 39106 ft | 553 kts | 98° |
| 2026-04-28 22:15 | 35.51409 | 21.18135 | 39102 ft | 553 kts | 97° |
| 2026-04-28 22:16 | 35.50388 | 21.27463 | 39101 ft | 551 kts | 94° |
| 2026-04-28 22:16 | 35.49502 | 21.36749 | 39102 ft | 551 kts | 94° |
| 2026-04-28 22:17 | 35.48562 | 21.46078 | 39103 ft | 552 kts | 95° |
| 2026-04-28 22:17 | 35.47573 | 21.55407 | 39041 ft | 550 kts | 95° |
| 2026-04-28 22:18 | 35.46568 | 21.64682 | 39102 ft | 550 kts | 95° |
| 2026-04-28 22:18 | 35.45552 | 21.73995 | 39099 ft | 551 kts | 95° |
| 2026-04-28 22:19 | 35.44528 | 21.83325 | 39099 ft | 551 kts | 95° |
| 2026-04-28 22:19 | 35.43500 | 21.92637 | 39096 ft | 551 kts | 95° |
| 2026-04-28 22:20 | 35.42465 | 22.01948 | 39098 ft | 551 kts | 95° |
| 2026-04-28 22:20 | 35.41422 | 22.11258 | 39094 ft | 551 kts | 95° |
| 2026-04-28 22:21 | 35.40372 | 22.20570 | 39104 ft | 552 kts | 95° |
| 2026-04-28 22:21 | 35.39314 | 22.29888 | 39106 ft | 552 kts | 95° |
| 2026-04-28 22:22 | 35.38251 | 22.39197 | 39106 ft | 552 kts | 95° |
| 2026-04-28 22:22 | 35.37179 | 22.48512 | 39098 ft | 552 kts | 95° |
| 2026-04-28 22:23 | 35.36100 | 22.57828 | 39091 ft | 552 kts | 95° |
| 2026-04-28 22:23 | 35.35014 | 22.67140 | 39101 ft | 552 kts | 95° |
| 2026-04-28 22:24 | 35.33928 | 22.76387 | 39096 ft | 552 kts | 95° |
| 2026-04-28 22:24 | 35.32821 | 22.85751 | 39090 ft | 552 kts | 95° |
| 2026-04-28 22:25 | 35.31722 | 22.94989 | 39091 ft | 552 kts | 95° |
| 2026-04-28 22:25 | 35.30607 | 23.04295 | 39084 ft | 552 kts | 95° |
| 2026-04-28 22:26 | 35.29487 | 23.13585 | 39090 ft | 552 kts | 95° |
| 2026-04-28 22:26 | 35.28359 | 23.22872 | 39089 ft | 551 kts | 95° |
| 2026-04-28 22:27 | 35.27225 | 23.32153 | 39082 ft | 551 kts | 95° |
| 2026-04-28 22:27 | 35.26085 | 23.41424 | 39082 ft | 551 kts | 95° |
| 2026-04-28 22:28 | 35.24937 | 23.50698 | 39083 ft | 551 kts | 95° |
| 2026-04-28 22:28 | 35.23782 | 23.59974 | 39078 ft | 552 kts | 95° |
| 2026-04-28 22:29 | 35.22758 | 23.69267 | 39080 ft | 550 kts | 91° |
| 2026-04-28 22:29 | 35.22185 | 23.78574 | 39085 ft | 549 kts | 90° |
| 2026-04-28 22:30 | 35.21688 | 23.87883 | 39083 ft | 549 kts | 90° |
| 2026-04-28 22:30 | 35.21194 | 23.97188 | 39084 ft | 549 kts | 90° |
| 2026-04-28 22:31 | 35.20687 | 24.06437 | 39080 ft | 548 kts | 90° |
| 2026-04-28 22:31 | 35.20167 | 24.15754 | 39087 ft | 550 kts | 90° |
| 2026-04-28 22:32 | 35.19636 | 24.25067 | 39095 ft | 548 kts | 90° |
| 2026-04-28 22:32 | 35.19189 | 24.32793 | 39084 ft | 548 kts | 90° |
| 2026-04-28 22:33 | 35.18645 | 24.42098 | 39073 ft | 548 kts | 90° |
| 2026-04-28 22:33 | 35.18096 | 24.51380 | 39089 ft | 547 kts | 90° |
| 2026-04-28 22:34 | 35.17540 | 24.60650 | 39087 ft | 547 kts | 90° |
| 2026-04-28 22:34 | 35.16974 | 24.69918 | 39078 ft | 547 kts | 90° |
| 2026-04-28 22:35 | 35.16390 | 24.79184 | 39069 ft | 547 kts | 91° |
| 2026-04-28 22:35 | 35.15792 | 24.88453 | 39076 ft | 547 kts | 91° |
| 2026-04-28 22:36 | 35.15198 | 24.97718 | 39094 ft | 546 kts | 90° |
| 2026-04-28 22:36 | 35.14606 | 25.06956 | 39086 ft | 545 kts | 90° |
| 2026-04-28 22:37 | 35.14006 | 25.16191 | 39084 ft | 545 kts | 90° |
| 2026-04-28 22:37 | 35.13403 | 25.25361 | 39079 ft | 545 kts | 91° |
| 2026-04-28 22:38 | 35.12787 | 25.34598 | 39083 ft | 546 kts | 91° |
| 2026-04-28 22:38 | 35.12166 | 25.43823 | 39075 ft | 544 kts | 91° |
| 2026-04-28 22:39 | 35.11538 | 25.53029 | 39071 ft | 544 kts | 91° |
| 2026-04-28 22:39 | 35.10903 | 25.62246 | 39072 ft | 544 kts | 91° |
| 2026-04-28 22:40 | 35.10261 | 25.71457 | 39073 ft | 544 kts | 91° |
| 2026-04-28 22:40 | 35.09615 | 25.80634 | 39061 ft | 541 kts | 91° |
| 2026-04-28 22:41 | 35.08967 | 25.89780 | 39056 ft | 540 kts | 91° |
| 2026-04-28 22:41 | 35.08308 | 25.98916 | 39061 ft | 540 kts | 91° |
| 2026-04-28 22:42 | 35.07643 | 26.08032 | 39055 ft | 538 kts | 91° |
| 2026-04-28 22:42 | 35.06840 | 26.17122 | 39055 ft | 542 kts | 98° |
| 2026-04-28 22:43 | 35.04573 | 26.25915 | 39065 ft | 545 kts | 109° |
| 2026-04-28 22:43 | 35.01794 | 26.34452 | 39048 ft | 545 kts | 110° |
| 2026-04-28 22:44 | 34.98912 | 26.42993 | 39040 ft | 545 kts | 111° |
| 2026-04-28 22:44 | 34.96039 | 26.51545 | 39039 ft | 545 kts | 110° |
| 2026-04-28 22:45 | 34.93182 | 26.60094 | 39040 ft | 544 kts | 110° |
| 2026-04-28 22:45 | 34.90328 | 26.68639 | 39037 ft | 544 kts | 110° |
| 2026-04-28 22:46 | 34.87469 | 26.77173 | 39032 ft | 544 kts | 110° |
| 2026-04-28 22:46 | 34.84600 | 26.85711 | 39034 ft | 544 kts | 110° |
| 2026-04-28 22:47 | 34.81731 | 26.94225 | 39033 ft | 543 kts | 111° |
| 2026-04-28 22:47 | 34.78858 | 27.02724 | 39027 ft | 543 kts | 111° |
| 2026-04-28 22:48 | 34.75976 | 27.11229 | 39030 ft | 544 kts | 111° |
| 2026-04-28 22:48 | 34.73088 | 27.19729 | 39028 ft | 544 kts | 111° |
| 2026-04-28 22:49 | 34.70217 | 27.28155 | 39028 ft | 543 kts | 111° |
| 2026-04-28 22:49 | 34.67319 | 27.36637 | 39023 ft | 543 kts | 111° |
| 2026-04-28 22:50 | 34.64416 | 27.45110 | 39024 ft | 543 kts | 111° |
| 2026-04-28 22:50 | 34.61507 | 27.53578 | 39020 ft | 543 kts | 111° |
| 2026-04-28 22:51 | 34.58594 | 27.62032 | 39020 ft | 543 kts | 111° |
| 2026-04-28 22:51 | 34.55677 | 27.70477 | 39018 ft | 543 kts | 111° |
| 2026-04-28 22:52 | 34.52753 | 27.78922 | 39016 ft | 543 kts | 111° |
| 2026-04-28 22:52 | 34.49824 | 27.87355 | 39016 ft | 543 kts | 111° |
| 2026-04-28 22:53 | 34.46906 | 27.95728 | 39016 ft | 543 kts | 112° |
| 2026-04-28 22:53 | 34.43961 | 28.04159 | 39015 ft | 543 kts | 112° |
| 2026-04-28 22:54 | 34.41013 | 28.12575 | 39009 ft | 542 kts | 112° |
| 2026-04-28 22:54 | 34.38062 | 28.20979 | 39007 ft | 542 kts | 112° |
| 2026-04-28 22:55 | 34.35106 | 28.29377 | 39008 ft | 542 kts | 112° |
| 2026-04-28 22:55 | 34.32144 | 28.37766 | 39012 ft | 542 kts | 112° |
| 2026-04-28 22:56 | 34.29179 | 28.46144 | 39004 ft | 542 kts | 112° |
| 2026-04-28 22:56 | 34.26211 | 28.54508 | 39004 ft | 541 kts | 112° |
| 2026-04-28 22:57 | 34.23235 | 28.62872 | 39006 ft | 541 kts | 112° |
| 2026-04-28 22:57 | 34.20271 | 28.71181 | 39001 ft | 541 kts | 112° |
| 2026-04-28 22:58 | 34.17290 | 28.79516 | 39001 ft | 540 kts | 112° |
| 2026-04-28 22:58 | 34.14307 | 28.87835 | 39001 ft | 540 kts | 112° |
| 2026-04-28 22:59 | 34.11316 | 28.96156 | 39001 ft | 540 kts | 112° |
| 2026-04-28 22:59 | 34.08321 | 29.04465 | 38996 ft | 540 kts | 112° |
| 2026-04-28 23:00 | 34.05321 | 29.12766 | 38994 ft | 540 kts | 113° |
| 2026-04-28 23:00 | 34.02311 | 29.21073 | 38996 ft | 540 kts | 112° |
| 2026-04-28 23:01 | 33.99301 | 29.29360 | 38995 ft | 540 kts | 113° |
| 2026-04-28 23:01 | 33.96282 | 29.37652 | 38996 ft | 540 kts | 113° |
| 2026-04-28 23:02 | 33.93256 | 29.45939 | 38996 ft | 540 kts | 113° |
| 2026-04-28 23:02 | 33.90225 | 29.54220 | 38999 ft | 540 kts | 113° |
| 2026-04-28 23:03 | 33.87210 | 29.62439 | 38995 ft | 540 kts | 113° |
| 2026-04-28 23:03 | 33.84168 | 29.70708 | 38993 ft | 540 kts | 113° |
| 2026-04-28 23:04 | 33.81118 | 29.78977 | 38992 ft | 540 kts | 113° |
| 2026-04-28 23:04 | 33.76538 | 29.91359 | 38991 ft | 540 kts | 114° |
| 2026-04-28 23:05 | 33.74060 | 29.99848 | 38991 ft | 538 kts | 99° |
| 2026-04-28 23:05 | 33.73649 | 30.04304 | 38992 ft | 535 kts | 88° |
| 2026-04-28 23:05 | 33.73662 | 30.08762 | 38990 ft | 534 kts | 86° |
| 2026-04-28 23:06 | 33.74001 | 30.17672 | 38990 ft | 534 kts | 84° |
| 2026-04-28 23:06 | 33.74442 | 30.26596 | 39004 ft | 535 kts | 84° |
| 2026-04-28 23:07 | 33.74847 | 30.35457 | 38987 ft | 534 kts | 84° |
| 2026-04-28 23:07 | 33.75219 | 30.44361 | 38991 ft | 534 kts | 85° |
| 2026-04-28 23:08 | 33.75574 | 30.53272 | 38987 ft | 534 kts | 85° |
| 2026-04-28 23:08 | 33.75923 | 30.62179 | 38987 ft | 534 kts | 85° |
| 2026-04-28 23:09 | 33.76268 | 30.71091 | 38981 ft | 534 kts | 85° |
| 2026-04-28 23:09 | 33.76606 | 30.79999 | 38986 ft | 534 kts | 85° |
| 2026-04-28 23:10 | 33.76938 | 30.88910 | 38985 ft | 534 kts | 85° |
| 2026-04-28 23:10 | 33.77264 | 30.97827 | 39000 ft | 534 kts | 85° |
| 2026-04-28 23:11 | 33.77582 | 31.06734 | 38983 ft | 532 kts | 85° |
| 2026-04-28 23:11 | 33.77892 | 31.15567 | 38982 ft | 532 kts | 85° |
| 2026-04-28 23:12 | 33.78198 | 31.24454 | 38992 ft | 532 kts | 85° |
| 2026-04-28 23:12 | 33.78497 | 31.33338 | 38979 ft | 532 kts | 85° |
| 2026-04-28 23:13 | 33.78790 | 31.42226 | 38973 ft | 532 kts | 85° |
| 2026-04-28 23:13 | 33.79076 | 31.51118 | 38976 ft | 532 kts | 85° |
| 2026-04-28 23:14 | 33.79250 | 31.60015 | 38980 ft | 534 kts | 92° |
| 2026-04-28 23:14 | 33.77714 | 31.68720 | 38980 ft | 535 kts | 112° |
| 2026-04-28 23:15 | 33.76036 | 31.72699 | 38988 ft | 534 kts | 123° |
| 2026-04-28 23:15 | 33.74049 | 31.76468 | 38979 ft | 534 kts | 124° |
| 2026-04-28 23:15 | 33.69833 | 31.83823 | 38983 ft | 534 kts | 127° |
| 2026-04-28 23:16 | 33.65558 | 31.91113 | 38986 ft | 534 kts | 126° |
| 2026-04-28 23:16 | 33.61308 | 31.98425 | 38983 ft | 534 kts | 126° |
| 2026-04-28 23:17 | 33.57080 | 32.05747 | 38989 ft | 534 kts | 126° |
| 2026-04-28 23:17 | 33.52855 | 32.13069 | 38989 ft | 534 kts | 126° |
| 2026-04-28 23:18 | 33.48633 | 32.20368 | 38989 ft | 533 kts | 126° |
| 2026-04-28 23:18 | 33.44397 | 32.27672 | 38988 ft | 533 kts | 126° |
| 2026-04-28 23:19 | 33.40162 | 32.34959 | 38987 ft | 533 kts | 127° |
| 2026-04-28 23:19 | 33.35950 | 32.42194 | 38972 ft | 533 kts | 127° |
| 2026-04-28 23:20 | 33.31704 | 32.49472 | 38990 ft | 534 kts | 127° |
| 2026-04-28 23:20 | 33.27447 | 32.56754 | 38991 ft | 534 kts | 127° |
| 2026-04-28 23:21 | 33.23188 | 32.64025 | 38992 ft | 534 kts | 127° |
| 2026-04-28 23:21 | 33.18924 | 32.71291 | 38993 ft | 534 kts | 127° |
| 2026-04-28 23:22 | 33.15371 | 32.77335 | 38994 ft | 534 kts | 127° |
| 2026-04-28 23:22 | 33.10375 | 32.85816 | 38994 ft | 535 kts | 127° |
| 2026-04-28 23:23 | 33.06104 | 32.93068 | 38992 ft | 535 kts | 127° |
| 2026-04-28 23:23 | 33.01837 | 33.00326 | 38996 ft | 534 kts | 127° |
| 2026-04-28 23:24 | 32.98288 | 33.06351 | 38996 ft | 534 kts | 128° |
| 2026-04-28 23:24 | 32.94011 | 33.13596 | 38996 ft | 534 kts | 128° |
| 2026-04-28 23:25 | 32.89730 | 33.20833 | 38995 ft | 535 kts | 128° |
| 2026-04-28 23:25 | 32.85437 | 33.28074 | 39001 ft | 536 kts | 128° |
| 2026-04-28 23:26 | 32.81136 | 33.35315 | 38998 ft | 536 kts | 128° |
| 2026-04-28 23:26 | 32.76833 | 33.42545 | 38998 ft | 536 kts | 128° |
| 2026-04-28 23:27 | 32.72525 | 33.49770 | 39001 ft | 536 kts | 128° |
| 2026-04-28 23:27 | 32.68215 | 33.56984 | 39001 ft | 536 kts | 128° |
| 2026-04-28 23:28 | 32.63926 | 33.64149 | 39001 ft | 536 kts | 128° |
| 2026-04-28 23:28 | 32.59606 | 33.71354 | 38996 ft | 536 kts | 129° |
| 2026-04-28 23:29 | 32.55284 | 33.78547 | 38998 ft | 536 kts | 129° |
| 2026-04-28 23:29 | 32.50956 | 33.85736 | 39001 ft | 535 kts | 129° |
| 2026-04-28 23:30 | 32.46627 | 33.92913 | 39004 ft | 535 kts | 129° |
| 2026-04-28 23:30 | 32.42288 | 34.00093 | 39001 ft | 536 kts | 129° |
| 2026-04-28 23:31 | 32.38009 | 34.07328 | 39001 ft | 539 kts | 124° |
| 2026-04-28 23:31 | 32.34447 | 34.15149 | 39000 ft | 541 kts | 120° |
| 2026-04-28 23:32 | 32.31060 | 34.23092 | 38997 ft | 541 kts | 120° |
| 2026-04-28 23:32 | 32.27724 | 34.30997 | 39001 ft | 541 kts | 120° |
| 2026-04-28 23:33 | 32.24353 | 34.38936 | 39002 ft | 540 kts | 120° |
| 2026-04-28 23:33 | 32.20967 | 34.46858 | 39000 ft | 540 kts | 120° |
| 2026-04-28 23:34 | 32.17619 | 34.54805 | 38998 ft | 543 kts | 116° |
| 2026-04-28 23:34 | 32.15478 | 34.63392 | 39004 ft | 547 kts | 104° |
| 2026-04-28 23:35 | 32.13959 | 34.72198 | 38996 ft | 548 kts | 102° |
| 2026-04-28 23:35 | 32.12537 | 34.81040 | 38997 ft | 549 kts | 103° |
| 2026-04-28 23:36 | 32.10998 | 34.89851 | 39000 ft | 547 kts | 109° |
| 2026-04-28 23:36 | 32.08725 | 34.98403 | 38998 ft | 546 kts | 111° |
| 2026-04-28 23:37 | 32.06295 | 35.06881 | 39001 ft | 545 kts | 112° |
| 2026-04-28 23:37 | 32.03840 | 35.15329 | 39007 ft | 545 kts | 112° |
| 2026-04-28 23:38 | 32.01386 | 35.23775 | 39018 ft | 545 kts | 112° |
| 2026-04-28 23:38 | 31.98934 | 35.32213 | 39022 ft | 544 kts | 112° |
| 2026-04-28 23:39 | 31.96525 | 35.40586 | 39025 ft | 544 kts | 112° |
| 2026-04-28 23:39 | 31.94120 | 35.49034 | 39025 ft | 545 kts | 109° |
| 2026-04-28 23:40 | 31.93417 | 35.53431 | 39030 ft | 550 kts | 97° |
| 2026-04-28 23:40 | 31.93026 | 35.57914 | 39028 ft | 550 kts | 100° |
| 2026-04-28 23:40 | 31.91040 | 35.66517 | 39045 ft | 543 kts | 115° |
| 2026-04-28 23:41 | 31.88012 | 35.74633 | 39042 ft | 541 kts | 119° |
| 2026-04-28 23:41 | 31.84732 | 35.82601 | 39046 ft | 541 kts | 120° |
| 2026-04-28 23:42 | 31.81433 | 35.90564 | 39074 ft | 542 kts | 120° |
| 2026-04-28 23:42 | 31.78162 | 35.98542 | 39073 ft | 542 kts | 120° |
| 2026-04-28 23:43 | 31.74902 | 36.06528 | 39074 ft | 542 kts | 120° |
| 2026-04-28 23:43 | 31.71642 | 36.14509 | 39072 ft | 542 kts | 120° |
| 2026-04-28 23:44 | 31.68370 | 36.22493 | 39067 ft | 542 kts | 120° |
| 2026-04-28 23:44 | 31.65096 | 36.30464 | 39057 ft | 542 kts | 120° |
| 2026-04-28 23:45 | 31.61820 | 36.38421 | 39043 ft | 542 kts | 120° |
| 2026-04-28 23:45 | 31.58540 | 36.46370 | 39035 ft | 541 kts | 120° |
| 2026-04-28 23:46 | 31.55274 | 36.54267 | 39040 ft | 542 kts | 121° |
| 2026-04-28 23:46 | 31.51981 | 36.62211 | 39034 ft | 542 kts | 121° |
| 2026-04-28 23:47 | 31.48682 | 36.70153 | 39023 ft | 542 kts | 121° |
| 2026-04-28 23:47 | 31.45380 | 36.78088 | 39012 ft | 542 kts | 121° |
| 2026-04-28 23:48 | 31.42066 | 36.86030 | 39007 ft | 542 kts | 121° |
| 2026-04-28 23:48 | 31.38751 | 36.93960 | 39003 ft | 542 kts | 121° |
| 2026-04-28 23:49 | 31.35430 | 37.01885 | 38993 ft | 542 kts | 121° |
| 2026-04-28 23:49 | 31.32105 | 37.09805 | 38994 ft | 542 kts | 122° |
| 2026-04-28 23:50 | 31.28795 | 37.17670 | 38992 ft | 542 kts | 122° |
| 2026-04-28 23:50 | 31.25651 | 37.25707 | 38979 ft | 547 kts | 116° |
| 2026-04-28 23:51 | 31.23026 | 37.34070 | 38992 ft | 549 kts | 115° |
| 2026-04-28 23:51 | 31.20491 | 37.42491 | 38990 ft | 549 kts | 114° |
| 2026-04-28 23:52 | 31.17962 | 37.50909 | 38985 ft | 550 kts | 115° |
| 2026-04-28 23:52 | 31.15411 | 37.59335 | 38991 ft | 551 kts | 115° |
| 2026-04-28 23:53 | 31.12853 | 37.67767 | 38990 ft | 551 kts | 115° |
| 2026-04-28 23:53 | 31.10289 | 37.76188 | 38992 ft | 551 kts | 116° |
| 2026-04-28 23:54 | 31.07715 | 37.84620 | 38996 ft | 552 kts | 116° |
| 2026-04-28 23:54 | 31.05137 | 37.93041 | 38996 ft | 552 kts | 116° |
| 2026-04-28 23:55 | 31.02550 | 38.01473 | 38995 ft | 552 kts | 116° |
| 2026-04-28 23:55 | 30.99958 | 38.09899 | 38993 ft | 552 kts | 116° |
| 2026-04-28 23:56 | 30.97358 | 38.18328 | 38993 ft | 552 kts | 116° |
| 2026-04-28 23:56 | 30.94753 | 38.26752 | 38994 ft | 553 kts | 116° |
| 2026-04-28 23:57 | 30.92137 | 38.35187 | 38995 ft | 554 kts | 116° |
| 2026-04-28 23:57 | 30.89532 | 38.43566 | 38992 ft | 554 kts | 116° |
| 2026-04-28 23:58 | 30.86906 | 38.51994 | 38996 ft | 554 kts | 116° |
| 2026-04-28 23:58 | 30.84273 | 38.60419 | 38997 ft | 554 kts | 116° |
| 2026-04-28 23:59 | 30.81631 | 38.68838 | 39099 ft | 553 kts | 110° |
| 2026-04-28 23:59 | 30.80313 | 38.73036 | 38973 ft | 550 kts | 110° |
| 2026-04-28 23:59 | 30.78910 | 38.77152 | 38997 ft | 546 kts | 115° |
| 2026-04-29 00:00 | 30.77307 | 38.81135 | 38838 ft | 542 kts | 122° |
| 2026-04-29 00:00 | 30.75664 | 38.85071 | 39014 ft | 540 kts | 124° |
| 2026-04-29 00:00 | 30.72290 | 38.92934 | 38999 ft | 546 kts | 124° |
| 2026-04-29 00:01 | 30.68905 | 39.00767 | 39006 ft | 546 kts | 124° |
| 2026-04-29 00:01 | 30.65502 | 39.08655 | 39001 ft | 546 kts | 124° |
| 2026-04-29 00:02 | 30.62098 | 39.16547 | 39007 ft | 547 kts | 124° |
| 2026-04-29 00:02 | 30.58684 | 39.24447 | 39018 ft | 548 kts | 124° |
| 2026-04-29 00:03 | 30.55262 | 39.32348 | 39020 ft | 548 kts | 124° |
| 2026-04-29 00:03 | 30.51833 | 39.40251 | 39021 ft | 549 kts | 125° |
| 2026-04-29 00:04 | 30.48394 | 39.48157 | 39022 ft | 549 kts | 125° |
| 2026-04-29 00:04 | 30.44947 | 39.56065 | 39024 ft | 550 kts | 125° |
| 2026-04-29 00:05 | 30.41493 | 39.63975 | 39018 ft | 550 kts | 125° |
| 2026-04-29 00:05 | 30.38155 | 39.71983 | 39026 ft | 554 kts | 123° |
| 2026-04-29 00:06 | 30.35010 | 39.80063 | 39027 ft | 555 kts | 122° |
| 2026-04-29 00:06 | 30.31829 | 39.88201 | 39031 ft | 555 kts | 123° |
| 2026-04-29 00:07 | 30.28609 | 39.96315 | 39015 ft | 555 kts | 123° |
| 2026-04-29 00:07 | 30.25369 | 40.04414 | 39003 ft | 555 kts | 123° |
| 2026-04-29 00:08 | 30.22116 | 40.12515 | 39014 ft | 555 kts | 123° |
| 2026-04-29 00:08 | 30.18858 | 40.20619 | 39017 ft | 556 kts | 123° |
| 2026-04-29 00:09 | 30.15599 | 40.28712 | 39010 ft | 556 kts | 123° |
| 2026-04-29 00:09 | 30.12328 | 40.36813 | 39012 ft | 556 kts | 124° |
| 2026-04-29 00:10 | 30.09058 | 40.44912 | 39010 ft | 556 kts | 124° |
| 2026-04-29 00:10 | 30.05774 | 40.53008 | 39006 ft | 558 kts | 124° |
| 2026-04-29 00:11 | 30.02477 | 40.61118 | 39006 ft | 559 kts | 124° |
| 2026-04-29 00:12 | 29.97521 | 40.73288 | 39004 ft | 559 kts | 124° |
| 2026-04-29 00:12 | 29.94211 | 40.81394 | 39001 ft | 559 kts | 124° |
| 2026-04-29 00:13 | 29.90917 | 40.89444 | 39004 ft | 559 kts | 124° |
| 2026-04-29 00:13 | 29.87594 | 40.97545 | 39000 ft | 560 kts | 124° |
| 2026-04-29 00:14 | 29.84260 | 41.05654 | 38996 ft | 560 kts | 124° |
| 2026-04-29 00:14 | 29.80919 | 41.13765 | 38970 ft | 560 kts | 124° |
| 2026-04-29 00:15 | 29.77572 | 41.21874 | 38995 ft | 561 kts | 124° |
| 2026-04-29 00:15 | 29.74762 | 41.28676 | 38992 ft | 563 kts | 124° |
| 2026-04-29 00:16 | 29.71895 | 41.37090 | 38981 ft | 570 kts | 118° |
| 2026-04-29 00:16 | 29.69205 | 41.45671 | 38986 ft | 571 kts | 118° |
| 2026-04-29 00:17 | 29.66543 | 41.54276 | 38978 ft | 571 kts | 118° |
| 2026-04-29 00:17 | 29.63869 | 41.62872 | 38968 ft | 571 kts | 118° |
| 2026-04-29 00:18 | 29.61178 | 41.71459 | 38978 ft | 571 kts | 118° |
| 2026-04-29 00:18 | 29.58478 | 41.80042 | 38962 ft | 571 kts | 118° |
| 2026-04-29 00:19 | 29.55771 | 41.88622 | 38973 ft | 571 kts | 118° |
| 2026-04-29 00:19 | 29.53059 | 41.97201 | 38966 ft | 571 kts | 118° |
| 2026-04-29 00:20 | 29.50345 | 42.05764 | 38961 ft | 571 kts | 118° |
| 2026-04-29 00:20 | 29.47623 | 42.14331 | 38965 ft | 571 kts | 118° |
| 2026-04-29 00:21 | 29.44897 | 42.22888 | 38954 ft | 571 kts | 118° |
| 2026-04-29 00:21 | 29.42185 | 42.31380 | 38973 ft | 571 kts | 118° |
| 2026-04-29 00:22 | 29.39448 | 42.39927 | 38970 ft | 571 kts | 118° |
| 2026-04-29 00:22 | 29.36708 | 42.48465 | 38960 ft | 571 kts | 118° |
| 2026-04-29 00:23 | 29.33960 | 42.57002 | 38960 ft | 571 kts | 118° |
| 2026-04-29 00:23 | 29.31207 | 42.65536 | 38944 ft | 571 kts | 119° |
| 2026-04-29 00:24 | 29.28444 | 42.74079 | 38956 ft | 572 kts | 119° |
| 2026-04-29 00:24 | 29.25677 | 42.82613 | 38955 ft | 572 kts | 119° |
| 2026-04-29 00:25 | 29.22905 | 42.91142 | 38949 ft | 571 kts | 119° |
| 2026-04-29 00:25 | 29.20128 | 42.99664 | 38949 ft | 571 kts | 119° |
| 2026-04-29 00:26 | 29.17340 | 43.08190 | 38944 ft | 571 kts | 119° |
| 2026-04-29 00:26 | 29.15696 | 43.12273 | 38948 ft | 560 kts | 128° |
| 2026-04-29 00:26 | 29.13834 | 43.16176 | 38940 ft | 558 kts | 129° |
| 2026-04-29 00:27 | 29.09966 | 43.23855 | 38929 ft | 556 kts | 130° |
| 2026-04-29 00:27 | 29.06060 | 43.31421 | 38941 ft | 557 kts | 130° |
| 2026-04-29 00:28 | 29.02123 | 43.39047 | 38941 ft | 557 kts | 130° |
| 2026-04-29 00:28 | 28.98191 | 43.46684 | 38929 ft | 557 kts | 130° |
| 2026-04-29 00:29 | 28.94266 | 43.54313 | 38939 ft | 557 kts | 130° |
| 2026-04-29 00:29 | 28.90336 | 43.61942 | 38941 ft | 557 kts | 130° |
| 2026-04-29 00:30 | 28.86395 | 43.69563 | 38935 ft | 557 kts | 130° |
| 2026-04-29 00:30 | 28.82453 | 43.77177 | 38953 ft | 557 kts | 130° |
| 2026-04-29 00:31 | 28.78509 | 43.84780 | 38936 ft | 557 kts | 130° |
| 2026-04-29 00:31 | 28.74557 | 43.92385 | 38936 ft | 557 kts | 130° |
| 2026-04-29 00:32 | 28.70604 | 43.99981 | 38936 ft | 557 kts | 130° |
| 2026-04-29 00:32 | 28.66649 | 44.07564 | 38934 ft | 557 kts | 130° |
| 2026-04-29 00:33 | 28.62691 | 44.15139 | 38939 ft | 557 kts | 130° |
| 2026-04-29 00:33 | 28.58755 | 44.22659 | 38916 ft | 557 kts | 130° |
| 2026-04-29 00:34 | 28.54787 | 44.30227 | 38941 ft | 557 kts | 130° |
| 2026-04-29 00:34 | 28.50817 | 44.37786 | 38925 ft | 557 kts | 130° |
| 2026-04-29 00:35 | 28.46842 | 44.45338 | 38935 ft | 556 kts | 130° |
| 2026-04-29 00:35 | 28.42865 | 44.52883 | 38939 ft | 556 kts | 130° |
| 2026-04-29 00:36 | 28.38886 | 44.60417 | 38942 ft | 556 kts | 130° |
| 2026-04-29 00:36 | 28.34900 | 44.67950 | 38937 ft | 556 kts | 130° |
| 2026-04-29 00:37 | 28.30912 | 44.75475 | 38936 ft | 556 kts | 130° |
| 2026-04-29 00:37 | 28.26918 | 44.82998 | 38940 ft | 556 kts | 130° |
| 2026-04-29 00:38 | 28.22921 | 44.90511 | 38936 ft | 556 kts | 130° |
| 2026-04-29 00:38 | 28.18923 | 44.98014 | 38933 ft | 556 kts | 130° |
| 2026-04-29 00:39 | 28.14917 | 45.05519 | 38928 ft | 556 kts | 130° |
| 2026-04-29 00:39 | 28.10910 | 45.13020 | 38929 ft | 556 kts | 130° |
| 2026-04-29 00:40 | 28.06931 | 45.20458 | 38931 ft | 556 kts | 130° |
| 2026-04-29 00:40 | 28.02926 | 45.27934 | 38927 ft | 556 kts | 130° |
| 2026-04-29 00:41 | 27.98912 | 45.35410 | 38926 ft | 556 kts | 130° |
| 2026-04-29 00:41 | 27.94896 | 45.42878 | 38927 ft | 556 kts | 130° |
| 2026-04-29 00:42 | 27.90876 | 45.50340 | 38926 ft | 556 kts | 130° |
| 2026-04-29 00:42 | 27.87595 | 45.58376 | 38938 ft | 575 kts | 112° |
| 2026-04-29 00:43 | 27.85563 | 45.67157 | 38929 ft | 580 kts | 109° |
| 2026-04-29 00:43 | 27.83777 | 45.76061 | 38924 ft | 581 kts | 108° |
| 2026-04-29 00:44 | 27.82003 | 45.84971 | 38922 ft | 581 kts | 109° |
| 2026-04-29 00:44 | 27.80186 | 45.93860 | 38922 ft | 581 kts | 109° |
| 2026-04-29 00:45 | 27.78342 | 46.02739 | 38922 ft | 580 kts | 109° |
| 2026-04-29 00:45 | 27.76504 | 46.11544 | 38922 ft | 580 kts | 109° |
| 2026-04-29 00:46 | 27.74650 | 46.20401 | 38920 ft | 580 kts | 109° |
| 2026-04-29 00:46 | 27.73409 | 46.26330 | 38919 ft | 580 kts | 109° |